Time;durP1;ratioP1;P1;durP2;ratioP2;P2;SDS_P1;SDS_P2;PMS_P1;PMS_P2;Temp;Humidity;BMP_temperature;BMP_pressure;BME280_temperature;BME280_humidity;BME280_pressure;Samples;Min_cycle;Max_cycle;Signal;HPM_P1;HPM_P2
2023/09/02 00:01:07;;;;;;;1.13;0.30;;;;;;;22.96;100.00;101617.09;10349971;28;20046;-79
2023/09/02 00:06:09;;;;;;;0.75;0.43;;;;;;;23.19;100.00;101613.28;10345570;28;20074;-78
2023/09/02 00:11:10;;;;;;;0.20;0.20;;;;;;;23.13;100.00;101616.81;10347219;28;20045;-78
2023/09/02 00:16:13;;;;;;;0.20;0.20;;;;;;;23.02;100.00;101620.50;10350567;28;20489;-79
2023/09/02 00:21:15;;;;;;;0.25;0.25;;;;;;;22.57;100.00;101618.50;10364153;28;20038;-80
2023/09/02 00:26:16;;;;;;;0.17;0.13;;;;;;;22.63;100.00;101614.06;10354839;28;20064;-80
2023/09/02 00:31:21;;;;;;;0.43;0.43;;;;;;;23.21;100.00;101621.13;10366325;28;20404;-79
2023/09/02 00:36:23;;;;;;;0.77;0.50;;;;;;;22.40;100.00;101610.84;10333377;28;20599;-78
2023/09/02 00:41:37;;;;;;;0.88;0.60;;;;;;;22.65;100.00;101609.63;10339278;28;20046;-79
2023/09/02 00:46:38;;;;;;;0.20;0.20;;;;;;;21.94;100.00;101585.94;10341254;28;20050;-81
2023/09/02 00:51:41;;;;;;;0.10;0.10;;;;;;;21.55;100.00;101581.06;10364309;28;20058;-79
2023/09/02 00:56:43;;;;;;;0.77;0.40;;;;;;;21.19;100.00;101575.25;10346442;28;20050;-78
2023/09/02 01:01:45;;;;;;;0.17;0.17;;;;;;;21.33;100.00;101577.75;10345627;28;20042;-78
2023/09/02 01:06:47;;;;;;;0.88;0.52;;;;;;;21.90;100.00;101587.72;10364621;28;20084;-78
2023/09/02 01:11:49;;;;;;;0.38;0.38;;;;;;;21.80;100.00;101604.47;10348734;28;20104;-79
2023/09/02 01:16:50;;;;;;;0.10;0.10;;;;;;;22.18;100.00;101604.03;10359356;28;20308;-77
2023/09/02 01:22:12;;;;;;;0.50;0.43;;;;;;;21.98;100.00;101603.41;10345654;28;20062;-80
2023/09/02 01:27:22;;;;;;;0.20;0.20;;;;;;;21.89;100.00;101603.50;10340631;28;20525;-79
2023/09/02 01:32:28;;;;;;;0.20;0.20;;;;;;;21.99;100.00;101602.53;10358624;28;20136;-81
2023/09/02 01:37:33;;;;;;;0.45;0.30;;;;;;;20.87;100.00;101592.94;10346699;28;20053;-80
2023/09/02 01:42:35;;;;;;;0.77;0.40;;;;;;;21.62;100.00;101616.00;10345984;28;20509;-79
2023/09/02 01:47:38;;;;;;;0.10;0.10;;;;;;;22.03;100.00;101618.22;10361765;28;20509;-80
2023/09/02 01:52:42;;;;;;;0.20;0.20;;;;;;;22.25;100.00;101624.97;10367780;28;20124;-80
2023/09/02 01:57:44;;;;;;;0.45;0.38;;;;;;;22.07;100.00;101619.06;10355550;28;20355;-80
2023/09/02 02:02:49;;;;;;;0.32;0.32;;;;;;;21.20;100.00;101609.28;10345213;28;20137;-78
2023/09/02 02:07:58;;;;;;;0.40;0.30;;;;;;;21.60;100.00;101623.00;10346701;28;20052;-80
2023/09/02 02:13:02;;;;;;;0.30;0.10;;;;;;;21.48;100.00;101624.78;10352157;28;20411;-79
2023/09/02 02:18:04;;;;;;;0.00;0.00;;;;;;;21.64;100.00;101620.34;10354194;28;20050;-79
2023/09/02 02:23:06;;;;;;;0.35;0.35;;;;;;;21.47;100.00;101630.94;10336693;28;20045;-80
2023/09/02 02:28:08;;;;;;;0.47;0.25;;;;;;;21.46;100.00;101630.94;10371083;28;20796;-81
2023/09/02 02:33:09;;;;;;;0.30;0.20;;;;;;;21.80;100.00;101642.03;10372017;28;20041;-81
2023/09/02 02:38:11;;;;;;;0.00;0.00;;;;;;;21.45;100.00;101639.69;10354885;28;20420;-79
2023/09/02 02:43:13;;;;;;;0.00;0.00;;;;;;;21.49;100.00;101644.03;10365305;28;20042;-79
2023/09/02 02:48:15;;;;;;;0.38;0.20;;;;;;;21.43;100.00;101639.69;10354159;28;20050;-79
2023/09/02 02:53:17;;;;;;;0.03;0.00;;;;;;;21.23;100.00;101643.34;10330570;28;20513;-78
2023/09/02 02:58:19;;;;;;;0.98;0.22;;;;;;;21.29;100.00;101639.81;10332464;28;20050;-80
2023/09/02 03:03:21;;;;;;;0.13;0.10;;;;;;;21.42;100.00;101650.19;10359226;28;20057;-79
2023/09/02 03:08:23;;;;;;;0.00;0.00;;;;;;;21.32;100.00;101658.13;10352009;28;20052;-79
2023/09/02 03:13:25;;;;;;;0.10;0.10;;;;;;;21.21;100.00;101641.63;10348929;28;20586;-79
2023/09/02 03:18:27;;;;;;;0.50;0.20;;;;;;;21.03;100.00;101637.38;10363792;28;20045;-78
2023/09/02 03:23:33;;;;;;;0.10;0.00;;;;;;;21.00;100.00;101637.38;10346791;28;20764;-78
2023/09/02 03:28:35;;;;;;;0.20;0.10;;;;;;;21.23;100.00;101640.72;10367194;28;20080;-79
2023/09/02 03:33:38;;;;;;;0.17;0.17;;;;;;;20.95;100.00;101649.63;10344310;28;20081;-81
2023/09/02 03:38:41;;;;;;;0.17;0.17;;;;;;;20.88;100.00;101638.31;10347957;28;20064;-80
2023/09/02 03:43:45;;;;;;;0.25;0.15;;;;;;;20.16;100.00;101642.91;10349854;28;20727;-80
2023/09/02 03:48:48;;;;;;;0.30;0.17;;;;;;;20.27;100.00;101658.56;10332590;28;20056;-78
2023/09/02 03:53:50;;;;;;;0.73;0.50;;;;;;;19.58;100.00;101646.44;10345223;28;20093;-81
2023/09/02 03:58:54;;;;;;;0.65;0.30;;;;;;;20.17;100.00;101654.25;10337566;28;20106;-79
2023/09/02 04:03:57;;;;;;;0.43;0.20;;;;;;;20.28;100.00;101666.44;10339120;28;20698;-81
2023/09/02 04:08:58;;;;;;;0.38;0.38;;;;;;;20.42;100.00;101668.16;10365965;28;20088;-80
2023/09/02 04:14:00;;;;;;;0.22;0.22;;;;;;;20.29;100.00;101677.75;10349637;28;20053;-79
2023/09/02 04:19:04;;;;;;;0.05;0.05;;;;;;;20.05;100.00;101668.22;10340493;28;20056;-79
2023/09/02 04:24:06;;;;;;;0.20;0.20;;;;;;;20.02;100.00;101666.50;10335581;28;20045;-78
2023/09/02 04:29:08;;;;;;;0.00;0.00;;;;;;;20.22;100.00;101679.50;10340832;28;20043;-78
2023/09/02 04:34:10;;;;;;;0.15;0.10;;;;;;;19.80;100.00;101665.59;10344709;28;20038;-78
2023/09/02 04:39:11;;;;;;;0.00;0.00;;;;;;;20.89;100.00;101684.56;10328451;28;20132;-79
2023/09/02 04:44:17;;;;;;;0.13;0.13;;;;;;;20.75;100.00;101684.63;10336704;28;20100;-79
2023/09/02 04:49:19;;;;;;;0.00;0.00;;;;;;;20.43;100.00;101682.97;10326947;28;20056;-80
2023/09/02 04:54:21;;;;;;;1.25;0.22;;;;;;;20.92;100.00;101698.53;10336151;28;20494;-79
2023/09/02 04:59:22;;;;;;;0.63;0.25;;;;;;;21.14;100.00;101700.19;10329987;28;20509;-78
2023/09/02 05:04:25;;;;;;;0.15;0.15;;;;;;;20.89;100.00;101703.75;10345329;28;20065;-81
2023/09/02 05:09:26;;;;;;;0.90;0.30;;;;;;;21.42;100.00;101702.63;10340697;28;20042;-79
2023/09/02 05:14:28;;;;;;;0.32;0.17;;;;;;;21.65;100.00;101708.63;10360892;28;20052;-78
2023/09/02 05:19:30;;;;;;;0.10;0.10;;;;;;;22.05;100.00;101717.91;10322821;28;20081;-80
2023/09/02 05:24:32;;;;;;;0.38;0.20;;;;;;;21.37;100.00;101715.75;10345548;28;20038;-81
2023/09/02 05:29:33;;;;;;;0.60;0.20;;;;;;;21.89;100.00;101716.28;10353224;28;20062;-78
2023/09/02 05:34:35;;;;;;;0.00;0.00;;;;;;;22.45;100.00;101725.41;10365036;28;20042;-80
2023/09/02 05:39:37;;;;;;;0.15;0.15;;;;;;;21.87;100.00;101719.78;10368519;28;20528;-80
2023/09/02 05:44:38;;;;;;;0.00;0.00;;;;;;;21.87;100.00;101726.81;10355036;28;20050;-78
2023/09/02 05:49:40;;;;;;;0.15;0.15;;;;;;;21.60;100.00;101717.38;10366562;28;20119;-80
2023/09/02 05:54:41;;;;;;;0.63;0.43;;;;;;;21.72;100.00;101719.91;10370599;28;20042;-78
2023/09/02 05:59:44;;;;;;;0.38;0.30;;;;;;;21.91;100.00;101727.66;10370330;28;20496;-78
2023/09/02 06:04:46;;;;;;;1.98;0.55;;;;;;;22.00;100.00;101732.81;10364610;28;20107;-77
2023/09/02 06:09:47;;;;;;;0.43;0.43;;;;;;;21.95;100.00;101739.84;10321742;28;20111;-78
2023/09/02 06:14:49;;;;;;;0.70;0.55;;;;;;;21.93;100.00;101736.38;10372079;28;20497;-80
2023/09/02 06:19:50;;;;;;;0.95;0.35;;;;;;;21.61;100.00;101725.22;10326218;28;20053;-79
2023/09/02 06:24:54;;;;;;;0.55;0.55;;;;;;;22.11;100.00;101736.22;10369105;28;20467;-78
2023/09/02 06:29:56;;;;;;;3.08;0.77;;;;;;;22.28;100.00;101737.81;10363602;28;20057;-80
2023/09/02 06:34:57;;;;;;;0.65;0.57;;;;;;;23.01;100.00;101751.03;10363314;28;20041;-78
2023/09/02 06:39:59;;;;;;;2.92;0.63;;;;;;;23.07;100.00;101750.09;10366328;28;20596;-80
2023/09/02 06:45:01;;;;;;;0.68;0.40;;;;;;;23.47;100.00;101765.34;10351395;28;20040;-80
2023/09/02 06:50:02;;;;;;;0.30;0.30;;;;;;;23.38;100.00;101776.00;10355237;28;20125;-80
2023/09/02 06:55:05;;;;;;;0.52;0.45;;;;;;;23.45;100.00;101789.03;10354513;28;20038;-79
2023/09/02 07:00:07;;;;;;;0.10;0.10;;;;;;;23.43;100.00;101800.47;10359465;28;20041;-79
2023/09/02 07:05:08;;;;;;;0.17;0.13;;;;;;;23.84;100.00;101813.91;10356380;28;20109;-80
2023/09/02 07:10:10;;;;;;;0.73;0.73;;;;;;;23.61;100.00;101823.88;10360312;28;20123;-81
2023/09/02 07:15:12;;;;;;;0.63;0.32;;;;;;;23.29;100.00;101830.44;10354967;28;20038;-79
2023/09/02 07:20:13;;;;;;;2.85;0.47;;;;;;;23.42;100.00;101836.41;10335232;28;20046;-80
2023/09/02 07:25:15;;;;;;;3.78;2.15;;;;;;;22.56;100.00;101837.34;10359498;28;20034;-79
2023/09/02 07:30:17;;;;;;;1.48;0.57;;;;;;;22.97;100.00;101833.44;10339295;28;20049;-78
2023/09/02 07:35:18;;;;;;;0.30;0.30;;;;;;;23.37;100.00;101843.47;10346023;28;20041;-79
2023/09/02 07:40:20;;;;;;;0.45;0.38;;;;;;;23.11;100.00;101863.06;10352468;28;20046;-80
2023/09/02 07:45:21;;;;;;;0.85;0.85;;;;;;;23.08;100.00;101857.81;10342518;28;20038;-77
2023/09/02 07:50:23;;;;;;;0.85;0.30;;;;;;;23.23;100.00;101869.06;10354138;28;20104;-78
2023/09/02 07:55:25;;;;;;;1.70;0.43;;;;;;;23.07;100.00;101874.47;10365276;28;20064;-79
2023/09/02 08:00:28;;;;;;;0.68;0.22;;;;;;;22.65;100.00;101874.03;10355320;28;20052;-80
2023/09/02 08:05:30;;;;;;;0.20;0.20;;;;;;;22.28;100.00;101869.91;10342680;28;20398;-78
2023/09/02 08:10:31;;;;;;;1.23;0.50;;;;;;;23.98;100.00;101904.09;10360686;28;20042;-80
2023/09/02 08:15:33;;;;;;;0.77;0.43;;;;;;;23.87;100.00;101922.63;10366468;28;20045;-79
2023/09/02 08:20:35;;;;;;;1.95;0.80;;;;;;;23.45;100.00;101917.03;10359412;28;20125;-80
2023/09/02 08:25:37;;;;;;;0.28;0.25;;;;;;;23.68;100.00;101929.91;10358593;28;20137;-80
2023/09/02 08:30:40;;;;;;;0.40;0.40;;;;;;;23.83;100.00;101946.38;10364447;28;20521;-79
2023/09/02 08:35:43;;;;;;;0.80;0.40;;;;;;;24.04;100.00;101951.38;10358730;28;20045;-80
2023/09/02 08:40:45;;;;;;;0.30;0.30;;;;;;;23.71;100.00;101952.66;10347301;28;20076;-80
2023/09/02 08:45:51;;;;;;;0.00;0.00;;;;;;;23.40;100.00;101943.38;10364856;28;20501;-81
2023/09/02 08:50:54;;;;;;;0.57;0.52;;;;;;;23.76;100.00;101945.56;10363580;28;20042;-80
2023/09/02 08:55:59;;;;;;;3.90;1.05;;;;;;;23.38;100.00;101937.25;10357793;28;20562;-80
2023/09/02 09:01:02;;;;;;;0.85;0.38;;;;;;;24.18;100.00;101922.22;10366075;28;20489;-79
2023/09/02 09:06:08;;;;;;;0.47;0.30;;;;;;;24.10;100.00;101920.59;10362470;28;20045;-80
2023/09/02 09:11:11;;;;;;;0.55;0.50;;;;;;;23.83;100.00;101926.19;10363699;28;20041;-81
2023/09/02 09:16:16;;;;;;;0.65;0.40;;;;;;;24.19;100.00;101938.88;10357550;28;20397;-82
2023/09/02 09:21:18;;;;;;;0.28;0.28;;;;;;;22.92;100.00;101919.31;10349596;28;20093;-80
2023/09/02 09:26:21;;;;;;;1.35;0.90;;;;;;;23.42;100.00;101924.94;10364586;28;20046;-80
2023/09/02 09:31:25;;;;;;;0.52;0.40;;;;;;;23.95;100.00;101945.38;10364670;28;20046;-79
2023/09/02 09:36:27;;;;;;;0.65;0.65;;;;;;;24.34;100.00;101959.72;10318683;28;20053;-81
2023/09/02 09:41:29;;;;;;;1.75;0.90;;;;;;;24.20;100.00;101980.97;10350095;28;20073;-78
2023/09/02 09:46:46;;;;;;;1.80;0.75;;;;;;;23.53;100.00;101980.91;10342582;28;20042;-78
2023/09/02 09:51:51;;;;;;;2.50;0.82;;;;;;;23.65;100.00;101989.56;10340514;28;20041;-78
2023/09/02 09:56:53;;;;;;;1.33;0.95;;;;;;;23.29;100.00;101982.94;10348732;28;20138;-81
2023/09/02 10:01:54;;;;;;;1.15;0.93;;;;;;;23.47;100.00;101991.50;10353415;28;20476;-79
2023/09/02 10:07:03;;;;;;;0.88;0.70;;;;;;;24.30;100.00;102000.19;10360581;28;20409;-79
2023/09/02 10:12:12;;;;;;;1.17;0.80;;;;;;;24.39;100.00;102013.19;10344570;28;20046;-81
2023/09/02 10:17:15;;;;;;;1.30;0.60;;;;;;;23.90;100.00;102021.72;10363781;28;20065;-82
2023/09/02 10:22:20;;;;;;;0.50;0.50;;;;;;;24.69;100.00;102039.13;10363250;28;20273;-80
2023/09/02 10:27:23;;;;;;;0.88;0.73;;;;;;;24.17;100.00;102030.16;10344051;28;20457;-80
2023/09/02 10:32:33;;;;;;;1.25;0.80;;;;;;;24.63;100.00;102034.78;10341748;28;20414;-80
2023/09/02 10:37:44;;;;;;;1.95;0.65;;;;;;;24.23;100.00;102032.75;10365674;28;20729;-81
2023/09/02 10:42:46;;;;;;;1.15;0.75;;;;;;;24.03;100.00;102047.03;10369172;28;20038;-82
2023/09/02 10:47:49;;;;;;;1.35;0.35;;;;;;;25.74;100.00;102050.53;10364506;28;20038;-80
2023/09/02 10:52:52;;;;;;;0.40;0.40;;;;;;;24.84;100.00;102059.09;10357912;28;20536;-81
2023/09/02 10:58:14;;;;;;;3.22;0.52;;;;;;;24.85;100.00;102055.56;10364913;28;20128;-81
2023/09/02 11:03:43;;;;;;;1.33;0.57;;;;;;;24.59;100.00;102051.56;10334140;28;20045;-81
2023/09/02 11:08:52;;;;;;;0.20;0.20;;;;;;;24.79;100.00;102060.94;10357240;28;20052;-80
2023/09/02 11:14:06;;;;;;;0.73;0.73;;;;;;;25.71;100.00;102061.16;10365815;28;20121;-80
2023/09/02 11:19:08;;;;;;;0.30;0.30;;;;;;;25.17;100.00;102068.22;10347841;28;20045;-80
2023/09/02 11:24:18;;;;;;;0.43;0.43;;;;;;;25.59;100.00;102078.06;10350802;28;20042;-81
2023/09/02 11:29:21;;;;;;;0.38;0.30;;;;;;;25.74;100.00;102078.69;10347875;28;20100;-79
2023/09/02 11:34:27;;;;;;;1.42;0.95;;;;;;;24.92;100.00;102080.94;10344373;28;20042;-81
2023/09/02 11:39:30;;;;;;;1.50;0.50;;;;;;;25.65;100.00;102072.69;10367420;28;20069;-81
2023/09/02 11:44:32;;;;;;;0.45;0.30;;;;;;;24.86;100.00;102067.88;10358611;28;20041;-80
2023/09/02 11:49:33;;;;;;;0.65;0.30;;;;;;;26.80;100.00;102067.69;10364657;28;20053;-79
2023/09/02 11:54:39;;;;;;;0.68;0.65;;;;;;;26.65;100.00;102074.19;10340021;28;20161;-79
2023/09/02 11:59:43;;;;;;;0.93;0.80;;;;;;;26.27;100.00;102071.47;10354061;28;20056;-81
2023/09/02 12:04:45;;;;;;;0.70;0.52;;;;;;;25.46;100.00;102084.47;10363681;28;20045;-80
2023/09/02 12:09:46;;;;;;;3.10;1.05;;;;;;;26.65;100.00;102087.41;10341585;28;20054;-80
2023/09/02 12:14:48;;;;;;;1.33;0.57;;;;;;;27.61;100.00;102086.84;10351190;28;20132;-79
2023/09/02 12:19:50;;;;;;;0.55;0.40;;;;;;;27.62;100.00;102078.00;10360493;28;20046;-79
2023/09/02 12:24:51;;;;;;;1.60;1.13;;;;;;;27.89;100.00;102080.81;10362148;28;20513;-80
2023/09/02 12:29:57;;;;;;;1.25;0.85;;;;;;;27.47;100.00;102089.88;10335550;28;20451;-80
2023/09/02 12:34:58;;;;;;;2.70;1.17;;;;;;;28.01;100.00;102088.38;10345394;28;20062;-80
2023/09/02 12:40:10;;;;;;;0.68;0.50;;;;;;;27.35;100.00;102105.13;10359538;28;20053;-80
2023/09/02 12:45:11;;;;;;;0.93;0.77;;;;;;;27.52;100.00;102104.69;10345187;28;20050;-80
2023/09/02 12:50:14;;;;;;;1.90;1.13;;;;;;;27.45;100.00;102113.72;10358280;28;20046;-79
2023/09/02 12:55:15;;;;;;;1.00;0.60;;;;;;;28.64;100.00;102115.69;10354852;28;20125;-80
2023/09/02 13:00:17;;;;;;;0.57;0.10;;;;;;;28.17;100.00;102117.97;10350504;28;20867;-81
2023/09/02 13:05:19;;;;;;;2.47;1.00;;;;;;;28.18;100.00;102125.00;10363537;28;20096;-82
2023/09/02 13:10:21;;;;;;;1.45;1.10;;;;;;;27.64;100.00;102113.25;10346813;28;20053;-80
2023/09/02 13:15:25;;;;;;;0.50;0.47;;;;;;;28.43;100.00;102113.69;10350351;28;20042;-79
2023/09/02 13:20:27;;;;;;;1.92;1.02;;;;;;;27.82;100.00;102103.91;10353858;28;20046;-81
2023/09/02 13:25:28;;;;;;;1.38;0.93;;;;;;;27.77;100.00;102108.50;10349720;28;20054;-80
2023/09/02 13:30:30;;;;;;;1.65;0.77;;;;;;;27.74;100.00;102103.25;10345519;28;20617;-78
2023/09/02 13:35:55;;;;;;;1.50;1.02;;;;;;;27.78;100.00;102100.50;10358090;28;20049;-80
2023/09/02 13:40:56;;;;;;;3.85;1.63;;;;;;;27.85;100.00;102088.81;10358691;28;20061;-81
2023/09/02 13:46:06;;;;;;;0.52;0.40;;;;;;;27.95;100.00;102086.78;10335900;28;20053;-79
2023/09/02 13:51:14;;;;;;;0.75;0.57;;;;;;;28.14;100.00;102079.19;10361272;28;20038;-78
2023/09/02 13:56:15;;;;;;;0.63;0.20;;;;;;;27.98;100.00;102083.16;10352714;28;20053;-81
2023/09/02 14:01:19;;;;;;;0.75;0.40;;;;;;;28.60;100.00;102084.84;10354337;28;20054;-79
2023/09/02 14:06:21;;;;;;;1.30;0.88;;;;;;;28.59;100.00;102077.84;10341506;28;20783;-81
2023/09/02 14:11:23;;;;;;;0.10;0.10;;;;;;;27.92;100.00;102096.59;10362238;28;20096;-79
2023/09/02 14:16:24;;;;;;;0.25;0.25;;;;;;;27.88;100.00;102105.53;10365676;28;20061;-78
2023/09/02 14:21:26;;;;;;;2.88;0.55;;;;;;;27.96;100.00;102108.84;10363519;28;20125;-79
2023/09/02 14:26:30;;;;;;;0.30;0.20;;;;;;;27.97;100.00;102100.84;10344249;28;20054;-81
2023/09/02 14:31:31;;;;;;;0.32;0.22;;;;;;;28.10;100.00;102104.06;10359119;28;20141;-78
2023/09/02 14:36:33;;;;;;;0.20;0.20;;;;;;;27.46;100.00;102104.88;10362247;28;20050;-78
2023/09/02 14:41:34;;;;;;;0.95;0.65;;;;;;;27.99;100.00;102104.31;10368169;28;20046;-80
2023/09/02 14:46:36;;;;;;;0.80;0.65;;;;;;;27.43;100.00;102109.38;10364406;28;20046;-79
2023/09/02 14:51:38;;;;;;;0.28;0.25;;;;;;;27.07;100.00;102112.88;10358229;28;20052;-81
2023/09/02 14:56:44;;;;;;;0.10;0.10;;;;;;;28.02;100.00;102108.66;10342247;28;20096;-78
2023/09/02 15:01:45;;;;;;;0.47;0.15;;;;;;;27.86;100.00;102114.38;10353175;28;20049;-78
2023/09/02 15:06:48;;;;;;;0.63;0.20;;;;;;;27.48;100.00;102111.00;10364521;28;20049;-80
2023/09/02 15:11:49;;;;;;;0.43;0.38;;;;;;;27.74;100.00;102109.41;10360469;28;20061;-81
2023/09/02 15:16:54;;;;;;;1.55;0.57;;;;;;;27.17;100.00;102114.38;10363057;28;20042;-79
2023/09/02 15:22:01;;;;;;;0.60;0.57;;;;;;;27.09;100.00;102119.00;10369126;28;20034;-78
2023/09/02 15:27:03;;;;;;;0.43;0.43;;;;;;;26.99;100.00;102125.44;10350798;28;20045;-82
2023/09/02 15:32:05;;;;;;;0.20;0.20;;;;;;;27.12;100.00;102121.56;10330295;28;20112;-78
2023/09/02 15:37:13;;;;;;;2.13;0.30;;;;;;;27.01;100.00;102140.34;10358900;28;20096;-80
2023/09/02 15:42:15;;;;;;;1.17;0.80;;;;;;;27.84;100.00;102129.44;10360655;28;20048;-79
2023/09/02 15:47:16;;;;;;;0.40;0.40;;;;;;;27.32;100.00;102136.06;10364933;28;20116;-78
2023/09/02 15:52:18;;;;;;;1.60;0.52;;;;;;;27.14;100.00;102135.66;10349770;28;20053;-78
2023/09/02 15:57:19;;;;;;;1.45;0.52;;;;;;;27.23;100.00;102138.03;10362534;28;20417;-80
2023/09/02 16:02:21;;;;;;;0.28;0.28;;;;;;;27.60;100.00;102140.69;10360492;28;20042;-79
2023/09/02 16:07:23;;;;;;;0.38;0.38;;;;;;;26.79;100.00;102147.91;10357551;28;20068;-79
2023/09/02 16:12:24;;;;;;;0.75;0.52;;;;;;;26.77;100.00;102157.63;10351289;28;20037;-79
2023/09/02 16:17:30;;;;;;;0.45;0.43;;;;;;;27.09;100.00;102161.31;10355319;28;20038;-79
2023/09/02 16:22:31;;;;;;;0.77;0.70;;;;;;;27.28;100.00;102161.75;10363693;28;20505;-79
2023/09/02 16:27:33;;;;;;;1.58;0.73;;;;;;;27.02;100.00;102162.38;10362184;28;20057;-79
2023/09/02 16:32:34;;;;;;;1.70;0.82;;;;;;;26.75;100.00;102157.66;10366684;28;20045;-79
2023/09/02 16:37:40;;;;;;;0.38;0.25;;;;;;;27.33;100.00;102162.47;10348411;28;20048;-80
2023/09/02 16:42:43;;;;;;;0.88;0.35;;;;;;;26.94;100.00;102166.97;10354316;28;20531;-79
2023/09/02 16:47:52;;;;;;;0.47;0.30;;;;;;;26.12;100.00;102161.59;10341913;28;20444;-79
2023/09/02 16:52:54;;;;;;;1.23;0.85;;;;;;;25.60;100.00;102161.63;10341392;28;20037;-80
2023/09/02 16:57:55;;;;;;;0.35;0.30;;;;;;;25.70;100.00;102164.13;10343093;28;20531;-81
2023/09/02 17:03:00;;;;;;;0.55;0.38;;;;;;;25.84;100.00;102179.72;10356321;28;20038;-78
2023/09/02 17:08:05;;;;;;;1.48;0.88;;;;;;;25.48;100.00;102182.94;10344252;28;20515;-81
2023/09/02 17:13:06;;;;;;;0.57;0.40;;;;;;;25.63;100.00;102174.78;10362400;28;20046;-80
2023/09/02 17:18:09;;;;;;;0.45;0.35;;;;;;;25.96;100.00;102184.75;10354926;28;20048;-79
2023/09/02 17:23:13;;;;;;;0.70;0.70;;;;;;;25.87;100.00;102196.38;10364591;28;20097;-80
2023/09/02 17:28:17;;;;;;;0.50;0.20;;;;;;;25.83;100.00;102191.16;10363818;28;20046;-79
2023/09/02 17:33:19;;;;;;;0.20;0.20;;;;;;;25.55;100.00;102207.44;10342952;28;20390;-79
2023/09/02 17:38:21;;;;;;;0.28;0.15;;;;;;;25.50;100.00;102212.84;10371749;28;20104;-81
2023/09/02 17:43:23;;;;;;;0.00;0.00;;;;;;;25.33;100.00;102219.19;10366288;28;20137;-80
2023/09/02 17:48:24;;;;;;;0.43;0.20;;;;;;;25.49;100.00;102224.28;10327702;28;20466;-79
2023/09/02 17:53:26;;;;;;;0.20;0.20;;;;;;;25.58;100.00;102210.06;10367837;28;20046;-81
2023/09/02 17:58:28;;;;;;;0.10;0.00;;;;;;;24.95;100.00;102217.97;10364468;28;20090;-81
2023/09/02 18:03:29;;;;;;;0.10;0.03;;;;;;;25.32;100.00;102214.81;10346845;28;20045;-79
2023/09/02 18:08:31;;;;;;;0.10;0.10;;;;;;;25.77;100.00;102227.31;10363229;28;20056;-81
2023/09/02 18:13:53;;;;;;;0.00;0.00;;;;;;;25.72;100.00;102233.59;10346613;28;20050;-82
2023/09/02 18:18:54;;;;;;;1.67;0.38;;;;;;;24.99;100.00;102239.91;10366757;28;20444;-81
2023/09/02 18:23:56;;;;;;;0.13;0.10;;;;;;;24.85;100.00;102240.06;10343576;28;20038;-81
2023/09/02 18:28:57;;;;;;;0.25;0.10;;;;;;;24.46;100.00;102242.28;10331020;28;20054;-80
2023/09/02 18:33:59;;;;;;;0.10;0.10;;;;;;;24.50;100.00;102254.50;10349018;28;20498;-82
2023/09/02 18:39:00;;;;;;;0.00;0.00;;;;;;;24.17;100.00;102262.75;10337764;28;20121;-81
2023/09/02 18:44:02;;;;;;;0.10;0.03;;;;;;;23.58;100.00;102267.56;10350926;28;20046;-81
2023/09/02 18:49:04;;;;;;;0.35;0.32;;;;;;;23.61;100.00;102272.84;10352392;28;20092;-79
2023/09/02 18:54:05;;;;;;;0.55;0.25;;;;;;;23.52;100.00;102272.88;10363179;28;20052;-79
2023/09/02 18:59:07;;;;;;;0.00;0.00;;;;;;;23.29;100.00;102276.53;10357352;28;20038;-78
2023/09/02 19:04:08;;;;;;;0.90;0.22;;;;;;;23.17;100.00;102281.81;10343233;28;20046;-81
2023/09/02 19:09:10;;;;;;;0.00;0.00;;;;;;;22.73;100.00;102279.38;10325139;28;20583;-79
2023/09/02 19:14:11;;;;;;;0.10;0.08;;;;;;;21.62;100.00;102261.06;10350821;28;20123;-78
2023/09/02 19:19:13;;;;;;;0.57;0.55;;;;;;;22.03;100.00;102268.06;10350729;28;20050;-80
2023/09/02 19:24:15;;;;;;;0.15;0.10;;;;;;;22.39;100.00;102275.94;10361164;28;20045;-79
2023/09/02 19:29:16;;;;;;;0.15;0.10;;;;;;;22.31;100.00;102281.16;10346814;28;20050;-79
2023/09/02 19:34:19;;;;;;;0.80;0.30;;;;;;;22.30;100.00;102287.31;10348548;28;20574;-77
2023/09/02 19:39:21;;;;;;;0.40;0.20;;;;;;;22.18;100.00;102299.56;10354129;28;20061;-78
2023/09/02 19:44:23;;;;;;;0.13;0.03;;;;;;;21.70;100.00;102296.91;10359003;28;20034;-77
2023/09/02 19:49:24;;;;;;;0.17;0.10;;;;;;;21.92;100.00;102301.31;10349599;28;20130;-78
2023/09/02 19:54:26;;;;;;;0.20;0.08;;;;;;;21.75;100.00;102309.16;10362239;28;20124;-79
2023/09/02 19:59:27;;;;;;;0.05;0.05;;;;;;;21.33;100.00;102312.50;10338113;28;20045;-80
2023/09/02 20:04:29;;;;;;;0.10;0.10;;;;;;;21.87;100.00;102314.44;10362217;28;20046;-79
2023/09/02 20:09:30;;;;;;;0.00;0.00;;;;;;;21.22;100.00;102316.84;10363307;28;20516;-79
2023/09/02 20:14:32;;;;;;;0.20;0.00;;;;;;;21.23;100.00;102324.72;10366300;28;20049;-79
2023/09/02 20:19:34;;;;;;;0.22;0.22;;;;;;;21.60;100.00;102330.97;10363285;28;20054;-78
2023/09/02 20:24:36;;;;;;;0.00;0.00;;;;;;;21.86;100.00;102333.66;10356153;28;20574;-80
2023/09/02 20:29:38;;;;;;;0.00;0.00;;;;;;;21.08;100.00;102350.84;10344069;28;20588;-78
2023/09/02 20:34:39;;;;;;;0.10;0.00;;;;;;;21.25;100.00;102356.16;10347481;28;20054;-77
2023/09/02 20:39:41;;;;;;;0.00;0.00;;;;;;;20.83;100.00;102362.94;10344726;28;20575;-78
2023/09/02 20:44:43;;;;;;;0.17;0.17;;;;;;;21.05;100.00;102361.31;10345786;28;20101;-80
2023/09/02 20:49:44;;;;;;;0.30;0.20;;;;;;;20.79;100.00;102367.28;10337332;28;20492;-78
2023/09/02 20:54:46;;;;;;;0.08;0.05;;;;;;;20.68;100.00;102380.28;10359619;28;20061;-77
2023/09/02 20:59:49;;;;;;;0.20;0.10;;;;;;;20.50;100.00;102381.00;10349459;28;20045;-79
2023/09/02 21:04:51;;;;;;;0.45;0.20;;;;;;;19.91;100.00;102356.94;10361412;28;20520;-78
2023/09/02 21:09:52;;;;;;;0.00;0.00;;;;;;;20.56;100.00;102386.28;10359398;28;20042;-79
2023/09/02 21:14:54;;;;;;;0.08;0.00;;;;;;;20.73;100.00;102388.19;10359037;28;20069;-80
2023/09/02 21:20:01;;;;;;;0.30;0.13;;;;;;;20.66;100.00;102399.47;10362783;28;20096;-79
2023/09/02 21:25:08;;;;;;;0.30;0.20;;;;;;;20.57;100.00;102400.25;10353791;28;20446;-78
2023/09/02 21:30:09;;;;;;;0.00;0.00;;;;;;;20.25;100.00;102399.09;10358728;28;20704;-80
2023/09/02 21:35:12;;;;;;;0.05;0.03;;;;;;;20.56;100.00;102395.88;10363737;28;20042;-80
2023/09/02 21:40:15;;;;;;;0.03;0.03;;;;;;;19.77;100.00;102388.13;10347038;28;20144;-80
2023/09/02 21:45:16;;;;;;;0.32;0.10;;;;;;;19.96;100.00;102388.34;10362683;28;20096;-79
2023/09/02 21:50:18;;;;;;;0.65;0.20;;;;;;;19.98;100.00;102391.84;10361534;28;20046;-79
2023/09/02 21:55:19;;;;;;;1.00;0.52;;;;;;;20.01;100.00;102401.47;10360530;28;20041;-78
2023/09/02 22:00:21;;;;;;;1.00;0.47;;;;;;;20.07;100.00;102414.59;10357376;28;20088;-77
2023/09/02 22:05:22;;;;;;;0.32;0.30;;;;;;;19.91;100.00;102430.16;10363680;28;20042;-80
2023/09/02 22:10:25;;;;;;;0.55;0.30;;;;;;;19.95;100.00;102439.78;10368547;28;20072;-80
2023/09/02 22:15:26;;;;;;;0.50;0.40;;;;;;;19.96;100.00;102452.00;10364720;28;20058;-79
2023/09/02 22:20:28;;;;;;;0.10;0.10;;;;;;;20.45;100.00;102472.59;10357900;28;20092;-79
2023/09/02 22:25:29;;;;;;;15.82;0.55;;;;;;;20.34;100.00;102478.56;10353963;28;20049;-79
2023/09/02 22:30:31;;;;;;;0.65;0.28;;;;;;;20.59;100.00;102474.44;10364022;28;20050;-77
2023/09/02 22:35:33;;;;;;;0.10;0.10;;;;;;;20.53;100.00;102480.50;10358982;28;20105;-80
2023/09/02 22:40:34;;;;;;;0.30;0.30;;;;;;;20.43;100.00;102483.91;10364094;28;20056;-79
2023/09/02 22:45:36;;;;;;;2.13;0.75;;;;;;;20.35;100.00;102482.94;10361194;28;20042;-79
2023/09/02 22:50:38;;;;;;;0.10;0.10;;;;;;;19.49;100.00;102478.38;10363368;28;20088;-80
2023/09/02 22:55:39;;;;;;;0.65;0.47;;;;;;;19.52;100.00;102475.84;10359068;28;20501;-80